Time,TemperatureF,DewpointF,PressureIn,WindDirection,WindDirectionDegrees,WindSpeedMPH,WindSpeedGustMPH,Humidity,HourlyPrecipIn,Conditions,Clouds,dailyrainin,SoftwareType,DateUTC
2013-01-07 00:00:00,15.9,13.2,30.25,SSW,210,0.0,0.0,89,-99.99,,,0.00,1-wire,2013-01-07 06:00:00,
2013-01-07 00:06:00,15.5,12.8,30.24,SW,235,0.0,0.0,89,-99.99,,,0.00,1-wire,2013-01-07 06:06:00,
2013-01-07 00:11:00,15.4,12.7,30.23,SW,235,1.0,3.0,89,-99.99,,,0.00,1-wire,2013-01-07 06:11:00,
2013-01-07 00:16:00,15.4,12.6,30.23,SW,235,0.0,3.0,89,-99.99,,,0.00,1-wire,2013-01-07 06:16:00,
2013-01-07 00:21:00,15.4,12.7,30.23,SSW,209,0.0,0.0,89,-99.99,,,0.00,1-wire,2013-01-07 06:21:00,
2013-01-07 00:26:00,14.9,12.3,30.23,SSW,209,0.0,0.0,89,-99.99,,,0.00,1-wire,2013-01-07 06:26:00,
2013-01-07 00:31:00,15.1,12.5,30.22,SSW,209,0.0,3.0,89,-99.99,,,0.00,1-wire,2013-01-07 06:31:00,
2013-01-07 00:36:00,15.4,12.8,30.22,SSW,196,0.0,0.0,89,-99.99,,,0.00,1-wire,2013-01-07 06:36:00,
2013-01-07 00:41:00,15.3,12.7,30.22,SSW,196,0.0,0.0,89,-99.99,,,0.00,1-wire,2013-01-07 06:41:00,
2013-01-07 00:46:00,15.2,12.6,30.22,SSW,196,0.0,0.0,89,-99.99,,,0.00,1-wire,2013-01-07 06:46:00,
2013-01-07 00:51:00,15.2,12.7,30.22,South,190,0.0,3.0,89,-99.99,,,0.00,1-wire,2013-01-07 06:51:00,
2013-01-07 00:56:00,15.3,12.6,30.22,South,190,0.0,0.0,89,-99.99,,,0.00,1-wire,2013-01-07 06:56:00,
2013-01-07 01:01:00,15.4,12.8,30.22,South,190,1.0,3.0,89,-99.99,,,0.00,1-wire,2013-01-07 07:01:00,
2013-01-07 01:06:00,15.7,12.9,30.22,SSW,200,0.0,0.0,88,-99.99,,,0.00,1-wire,2013-01-07 07:06:00,
2013-01-07 01:11:00,15.2,12.6,30.22,SSW,200,0.0,3.0,89,-99.99,,,0.00,1-wire,2013-01-07 07:11:00,
2013-01-07 01:16:00,15.3,12.8,30.22,SSW,200,0.0,0.0,90,-99.99,,,0.00,1-wire,2013-01-07 07:16:00,
2013-01-07 01:21:00,15.4,13.0,30.22,SSW,203,1.0,3.0,90,-99.99,,,0.00,1-wire,2013-01-07 07:21:00,
2013-01-07 01:26:00,15.7,13.1,30.22,SSW,203,1.0,6.0,89,-99.99,,,0.00,1-wire,2013-01-07 07:26:00,
2013-01-07 01:31:00,15.7,13.0,30.22,SSW,203,0.0,3.0,89,-99.99,,,0.00,1-wire,2013-01-07 07:31:00,
2013-01-07 01:36:00,15.9,13.2,30.22,SSW,210,1.0,6.0,89,-99.99,,,0.00,1-wire,2013-01-07 07:36:00,
2013-01-07 01:41:00,16.0,13.1,30.22,SSW,210,0.0,3.0,88,-99.99,,,0.00,1-wire,2013-01-07 07:41:00,
2013-01-07 01:46:00,15.9,13.0,30.22,SSW,210,1.0,3.0,88,-99.99,,,0.00,1-wire,2013-01-07 07:46:00,
2013-01-07 01:51:00,16.1,13.2,30.22,SSW,201,2.0,6.0,88,-99.99,,,0.00,1-wire,2013-01-07 07:51:00,
2013-01-07 01:56:00,16.2,13.3,30.22,SSW,201,2.0,6.0,88,-99.99,,,0.00,1-wire,2013-01-07 07:56:00,
2013-01-07 02:01:00,16.4,13.4,30.22,SSW,201,3.0,6.0,88,-99.99,,,0.00,1-wire,2013-01-07 08:01:00,
2013-01-07 02:06:00,16.3,13.2,30.22,SSW,195,2.0,6.0,87,-99.99,,,0.00,1-wire,2013-01-07 08:06:00,
2013-01-07 02:11:00,16.2,13.2,30.22,SSW,195,4.0,6.0,88,-99.99,,,0.00,1-wire,2013-01-07 08:11:00,
2013-01-07 02:17:00,16.0,13.0,30.22,SSW,195,1.0,3.0,87,-99.99,,,0.00,1-wire,2013-01-07 08:17:00,
2013-01-07 02:23:00,16.0,13.0,30.22,SSW,202,1.0,3.0,88,-99.99,,,0.00,1-wire,2013-01-07 08:23:00,
2013-01-07 02:28:00,16.1,13.1,30.22,SSW,202,0.0,3.0,88,-99.99,,,0.00,1-wire,2013-01-07 08:28:00,
2013-01-07 02:33:00,16.0,13.0,30.22,SSW,202,1.0,3.0,88,-99.99,,,0.00,1-wire,2013-01-07 08:33:00,
2013-01-07 02:38:00,16.1,13.2,30.22,SSW,199,0.0,3.0,88,-99.99,,,0.00,1-wire,2013-01-07 08:38:00,
2013-01-07 02:43:00,15.9,13.1,30.21,SSW,199,0.0,3.0,88,-99.99,,,0.00,1-wire,2013-01-07 08:43:00,
2013-01-07 02:48:00,15.9,13.1,30.21,SSW,199,1.0,3.0,88,-99.99,,,0.00,1-wire,2013-01-07 08:48:00,
2013-01-07 02:53:00,15.9,13.1,30.22,SSW,199,1.0,6.0,88,-99.99,,,0.00,1-wire,2013-01-07 08:53:00,
2013-01-07 02:58:00,16.0,13.2,30.22,SSW,199,3.0,6.0,88,-99.99,,,0.00,1-wire,2013-01-07 08:58:00,
2013-01-07 03:03:00,15.9,13.1,30.21,SSW,199,1.0,6.0,88,-99.99,,,0.00,1-wire,2013-01-07 09:03:00,
2013-01-07 03:08:00,15.9,13.1,30.21,South,189,1.0,3.0,88,-99.99,,,0.00,1-wire,2013-01-07 09:08:00,
2013-01-07 03:13:00,15.9,13.2,30.21,South,189,2.0,3.0,89,-99.99,,,0.00,1-wire,2013-01-07 09:13:00,
2013-01-07 03:18:00,15.9,13.2,30.21,South,189,2.0,6.0,89,-99.99,,,0.00,1-wire,2013-01-07 09:18:00,
2013-01-07 03:23:00,16.0,13.2,30.20,South,190,1.0,3.0,89,-99.99,,,0.00,1-wire,2013-01-07 09:23:00,
2013-01-07 03:29:00,16.1,13.3,30.20,South,190,3.0,6.0,89,-99.99,,,0.00,1-wire,2013-01-07 09:29:00,
2013-01-07 03:35:00,16.5,13.5,30.20,South,190,4.0,6.0,88,-99.99,,,0.00,1-wire,2013-01-07 09:35:00,
2013-01-07 03:41:00,16.5,13.5,30.20,SSW,192,5.0,9.0,88,-99.99,,,0.00,1-wire,2013-01-07 09:41:00,
2013-01-07 03:46:00,16.6,13.6,30.20,SSW,192,2.0,3.0,88,-99.99,,,0.00,1-wire,2013-01-07 09:46:00,
2013-01-07 03:51:00,16.6,13.6,30.20,South,191,2.0,6.0,87,-99.99,,,0.00,1-wire,2013-01-07 09:51:00,
2013-01-07 03:56:00,16.6,13.4,30.20,South,191,2.0,6.0,87,-99.99,,,0.00,1-wire,2013-01-07 09:56:00,
2013-01-07 04:01:00,16.5,13.3,30.20,South,191,2.0,6.0,87,-99.99,,,0.00,1-wire,2013-01-07 10:01:00,
2013-01-07 04:07:00,16.4,13.4,30.20,South,189,2.0,9.0,88,-99.99,,,0.00,1-wire,2013-01-07 10:07:00,
2013-01-07 04:13:00,16.4,13.3,30.20,South,189,2.0,6.0,87,-99.99,,,0.00,1-wire,2013-01-07 10:13:00,
2013-01-07 04:18:00,16.0,13.0,30.20,South,189,0.0,3.0,88,-99.99,,,0.00,1-wire,2013-01-07 10:18:00,
2013-01-07 04:23:00,16.0,13.1,30.20,SW,222,1.0,3.0,88,-99.99,,,0.00,1-wire,2013-01-07 10:23:00,
2013-01-07 04:28:00,15.9,13.1,30.19,SW,222,1.0,3.0,88,-99.99,,,0.00,1-wire,2013-01-07 10:28:00,
2013-01-07 04:34:00,16.0,13.2,30.18,SW,222,2.0,6.0,89,-99.99,,,0.00,1-wire,2013-01-07 10:34:00,
2013-01-07 04:39:00,16.2,13.4,30.18,SW,229,4.0,9.0,89,-99.99,,,0.00,1-wire,2013-01-07 10:39:00,
2013-01-07 04:44:00,16.2,13.5,30.18,SW,229,2.0,6.0,89,-99.99,,,0.00,1-wire,2013-01-07 10:44:00,
2013-01-07 04:50:00,16.4,13.5,30.18,SW,229,1.0,3.0,88,-99.99,,,0.00,1-wire,2013-01-07 10:50:00,
2013-01-07 04:56:00,16.3,13.3,30.18,SW,228,1.0,3.0,88,-99.99,,,0.00,1-wire,2013-01-07 10:56:00,
2013-01-07 05:01:00,16.3,13.4,30.18,SW,228,2.0,6.0,88,-99.99,,,0.00,1-wire,2013-01-07 11:01:00,
2013-01-07 05:06:00,16.7,13.7,30.18,SW,231,2.0,6.0,88,-99.99,,,0.00,1-wire,2013-01-07 11:06:00,
2013-01-07 05:11:00,17.3,14.0,30.17,SW,231,1.0,3.0,87,-99.99,,,0.00,1-wire,2013-01-07 11:11:00,
2013-01-07 05:16:00,17.8,14.2,30.17,SW,231,2.0,6.0,86,-99.99,,,0.00,1-wire,2013-01-07 11:16:00,
2013-01-07 05:22:00,18.4,14.4,30.16,SSW,204,1.0,3.0,84,-99.99,,,0.00,1-wire,2013-01-07 11:22:00,
2013-01-07 05:28:00,18.5,14.4,30.16,SSW,204,3.0,11.0,84,-99.99,,,0.00,1-wire,2013-01-07 11:28:00,
2013-01-07 05:33:00,18.4,14.4,30.16,SSW,204,2.0,8.0,84,-99.99,,,0.00,1-wire,2013-01-07 11:33:00,
2013-01-07 05:38:00,18.4,14.2,30.16,SSW,203,1.0,3.0,83,-99.99,,,0.00,1-wire,2013-01-07 11:38:00,
2013-01-07 05:43:00,18.4,14.3,30.16,SSW,203,4.0,11.0,84,-99.99,,,0.00,1-wire,2013-01-07 11:43:00,
2013-01-07 05:48:00,18.3,14.2,30.15,SSW,203,2.0,9.0,84,-99.99,,,0.00,1-wire,2013-01-07 11:48:00,
2013-01-07 05:54:00,18.2,14.1,30.15,SSW,202,1.0,3.0,84,-99.99,,,0.00,1-wire,2013-01-07 11:54:00,
2013-01-07 06:00:00,18.3,14.2,30.15,SSW,202,3.0,6.0,83,-99.99,,,0.00,1-wire,2013-01-07 12:00:00,
2013-01-07 06:05:00,17.9,13.8,30.15,SSW,202,2.0,6.0,84,-99.99,,,0.00,1-wire,2013-01-07 12:05:00,
2013-01-07 06:10:00,17.6,13.7,30.15,SSW,199,3.0,8.0,84,-99.99,,,0.00,1-wire,2013-01-07 12:10:00,
2013-01-07 06:15:00,17.6,13.7,30.15,SSW,199,2.0,6.0,84,-99.99,,,0.00,1-wire,2013-01-07 12:15:00,
2013-01-07 06:20:00,17.8,13.9,30.15,SSW,199,2.0,3.0,84,-99.99,,,0.00,1-wire,2013-01-07 12:20:00,
2013-01-07 06:26:00,18.2,14.2,30.14,SSW,203,1.0,5.0,84,-99.99,,,0.00,1-wire,2013-01-07 12:26:00,
2013-01-07 06:31:00,18.6,14.6,30.14,SSW,203,5.0,9.0,84,-99.99,,,0.00,1-wire,2013-01-07 12:31:00,
2013-01-07 06:36:00,18.7,14.6,30.14,SSW,199,4.0,9.0,83,-99.99,,,0.00,1-wire,2013-01-07 12:36:00,
2013-01-07 06:41:00,18.8,14.5,30.14,SSW,199,3.0,6.0,83,-99.99,,,0.00,1-wire,2013-01-07 12:41:00,
2013-01-07 06:46:00,18.8,14.5,30.14,SSW,199,2.0,6.0,83,-99.99,,,0.00,1-wire,2013-01-07 12:46:00,
2013-01-07 06:51:00,18.7,14.5,30.14,SSW,205,3.0,6.0,83,-99.99,,,0.00,1-wire,2013-01-07 12:51:00,
2013-01-07 06:56:00,18.7,14.5,30.13,SSW,205,3.0,6.0,83,-99.99,,,0.00,1-wire,2013-01-07 12:56:00,
2013-01-07 07:01:00,18.9,14.7,30.14,SSW,205,2.0,6.0,83,-99.99,,,0.00,1-wire,2013-01-07 13:01:00,
2013-01-07 07:06:00,19.4,15.0,30.14,SSW,203,2.0,9.0,82,-99.99,,,0.00,1-wire,2013-01-07 13:06:00,
2013-01-07 07:11:00,19.6,15.1,30.12,SSW,203,4.0,14.0,82,-99.99,,,0.00,1-wire,2013-01-07 13:11:00,
2013-01-07 07:16:00,19.9,15.3,30.12,SSW,203,4.0,11.0,82,-99.99,,,0.00,1-wire,2013-01-07 13:16:00,
2013-01-07 07:21:00,20.0,15.4,30.12,SSW,197,6.0,11.0,82,-99.99,,,0.00,1-wire,2013-01-07 13:21:00,
2013-01-07 07:26:00,20.1,15.4,30.12,SSW,197,1.0,5.0,81,-99.99,,,0.00,1-wire,2013-01-07 13:26:00,
2013-01-07 07:31:00,20.3,15.6,30.12,SSW,197,4.0,9.0,82,-99.99,,,0.00,1-wire,2013-01-07 13:31:00,
2013-01-07 07:36:00,20.6,15.8,30.12,SSW,192,3.0,9.0,81,-99.99,,,0.00,1-wire,2013-01-07 13:36:00,
2013-01-07 07:41:00,21.0,16.1,30.14,SSW,192,6.0,11.0,81,-99.99,,,0.00,1-wire,2013-01-07 13:41:00,
2013-01-07 07:46:00,21.1,16.1,30.13,SSW,192,5.0,9.0,81,-99.99,,,0.00,1-wire,2013-01-07 13:46:00,
2013-01-07 07:51:00,20.9,16.0,30.13,SSW,199,1.0,6.0,81,-99.99,,,0.00,1-wire,2013-01-07 13:51:00,
2013-01-07 07:56:00,20.8,15.9,30.14,SSW,199,2.0,6.0,81,-99.99,,,0.00,1-wire,2013-01-07 13:56:00,
2013-01-07 08:01:00,21.1,16.2,30.13,SSW,199,2.0,3.0,81,-99.99,,,0.00,1-wire,2013-01-07 14:01:00,
2013-01-07 08:06:00,21.3,16.4,30.13,SSW,203,2.0,6.0,81,-99.99,,,0.00,1-wire,2013-01-07 14:06:00,
2013-01-07 08:11:00,21.5,16.4,30.13,SSW,203,1.0,6.0,80,-99.99,,,0.00,1-wire,2013-01-07 14:11:00,
2013-01-07 08:16:00,21.9,16.5,30.14,SSW,203,2.0,6.0,79,-99.99,,,0.00,1-wire,2013-01-07 14:16:00,
2013-01-07 08:21:00,22.2,16.6,30.14,SSW,204,1.0,6.0,79,-99.99,,,0.00,1-wire,2013-01-07 14:21:00,
2013-01-07 08:26:00,22.4,16.7,30.14,SSW,204,1.0,3.0,78,-99.99,,,0.00,1-wire,2013-01-07 14:26:00,
2013-01-07 08:31:00,22.6,16.9,30.15,SSW,204,2.0,6.0,78,-99.99,,,0.00,1-wire,2013-01-07 14:31:00,
2013-01-07 08:36:00,22.8,16.8,30.14,SSW,211,2.0,6.0,77,-99.99,,,0.00,1-wire,2013-01-07 14:36:00,
2013-01-07 08:41:00,23.3,16.9,30.14,SSW,211,2.0,6.0,76,-99.99,,,0.00,1-wire,2013-01-07 14:41:00,
2013-01-07 08:46:00,23.7,17.1,30.14,SSW,211,3.0,8.0,76,-99.99,,,0.00,1-wire,2013-01-07 14:46:00,
2013-01-07 08:51:00,24.0,17.3,30.14,SSW,206,2.0,6.0,75,-99.99,,,0.00,1-wire,2013-01-07 14:51:00,
2013-01-07 08:56:00,24.0,17.3,30.14,SSW,206,4.0,9.0,75,-99.99,,,0.00,1-wire,2013-01-07 14:56:00,
2013-01-07 09:01:00,24.1,17.4,30.13,SSW,206,3.0,9.0,75,-99.99,,,0.00,1-wire,2013-01-07 15:01:00,
2013-01-07 09:06:00,24.3,17.4,30.13,SSW,206,2.0,9.0,75,-99.99,,,0.00,1-wire,2013-01-07 15:06:00,
2013-01-07 09:11:00,24.7,17.8,30.13,SSW,206,2.0,6.0,75,-99.99,,,0.00,1-wire,2013-01-07 15:11:00,
2013-01-07 09:16:00,25.2,17.7,30.12,SSW,206,3.0,8.0,73,-99.99,,,0.00,1-wire,2013-01-07 15:16:00,
2013-01-07 09:21:00,25.5,17.9,30.12,SSW,193,2.0,6.0,72,-99.99,,,0.00,1-wire,2013-01-07 15:21:00,
2013-01-07 09:26:00,26.0,18.0,30.12,SSW,193,2.0,6.0,71,-99.99,,,0.00,1-wire,2013-01-07 15:26:00,
2013-01-07 09:31:00,26.3,17.7,30.12,SSW,193,4.0,8.0,69,-99.99,,,0.00,1-wire,2013-01-07 15:31:00,
2013-01-07 09:36:00,26.8,17.6,30.11,SSW,196,3.0,13.0,68,-99.99,,,0.00,1-wire,2013-01-07 15:36:00,
2013-01-07 09:41:00,27.0,17.6,30.11,SSW,196,5.0,11.0,67,-99.99,,,0.00,1-wire,2013-01-07 15:41:00,
2013-01-07 09:46:00,27.7,18.0,30.10,SSW,196,3.0,6.0,66,-99.99,,,0.00,1-wire,2013-01-07 15:46:00,
2013-01-07 09:51:00,27.9,18.1,30.10,SSW,203,6.0,12.0,66,-99.99,,,0.00,1-wire,2013-01-07 15:51:00,
2013-01-07 09:57:00,28.4,18.1,30.10,SSW,203,12.0,24.0,65,-99.99,,,0.00,1-wire,2013-01-07 15:57:00,
2013-01-07 10:02:00,28.5,18.0,30.11,SSW,203,8.0,16.0,64,-99.99,,,0.00,1-wire,2013-01-07 16:02:00,
2013-01-07 10:07:00,28.8,17.8,30.10,SSW,199,4.0,8.0,63,-99.99,,,0.00,1-wire,2013-01-07 16:07:00,
2013-01-07 10:12:00,29.1,17.9,30.10,SSW,199,6.0,16.0,63,-99.99,,,0.00,1-wire,2013-01-07 16:12:00,
2013-01-07 10:17:00,29.6,18.2,30.10,SSW,199,7.0,13.0,62,-99.99,,,0.00,1-wire,2013-01-07 16:17:00,
2013-01-07 10:22:00,29.8,18.3,30.10,SSW,203,4.0,9.0,62,-99.99,,,0.00,1-wire,2013-01-07 16:22:00,
2013-01-07 10:27:00,30.0,17.9,30.08,SSW,203,6.0,16.0,60,-99.99,,,0.00,1-wire,2013-01-07 16:27:00,
2013-01-07 10:33:00,30.5,18.3,30.09,SSW,203,9.0,14.0,60,-99.99,,,0.00,1-wire,2013-01-07 16:33:00,
2013-01-07 10:39:00,31.0,18.0,30.08,SSW,199,7.0,16.0,58,-99.99,,,0.00,1-wire,2013-01-07 16:39:00,
2013-01-07 10:44:00,31.4,18.3,30.07,SSW,199,8.0,16.0,58,-99.99,,,0.00,1-wire,2013-01-07 16:44:00,
2013-01-07 10:50:00,32.1,18.7,30.08,SSW,199,6.0,14.0,57,-99.99,,,0.00,1-wire,2013-01-07 16:50:00,
2013-01-07 10:55:00,32.4,18.5,30.07,SSW,206,7.0,14.0,56,-99.99,,,0.00,1-wire,2013-01-07 16:55:00,
2013-01-07 11:01:00,32.5,18.6,30.07,SSW,206,8.0,13.0,56,-99.99,,,0.00,1-wire,2013-01-07 17:01:00,
2013-01-07 11:06:00,32.8,19.0,30.07,SSW,209,6.0,10.0,57,-99.99,,,0.00,1-wire,2013-01-07 17:06:00,
2013-01-07 11:11:00,32.2,18.8,30.07,SSW,209,12.0,19.0,57,-99.99,,,0.00,1-wire,2013-01-07 17:11:00,
2013-01-07 11:16:00,32.6,18.8,30.07,SSW,209,6.0,14.0,56,-99.99,,,0.00,1-wire,2013-01-07 17:16:00,
2013-01-07 11:22:00,32.4,18.9,30.05,SSW,201,5.0,14.0,57,-99.99,,,0.00,1-wire,2013-01-07 17:22:00,
2013-01-07 11:27:00,32.0,19.0,30.05,SSW,201,8.0,16.0,58,-99.99,,,0.00,1-wire,2013-01-07 17:27:00,
2013-01-07 11:32:00,31.8,18.9,30.05,SSW,201,14.0,22.0,58,-99.99,,,0.00,1-wire,2013-01-07 17:32:00,
2013-01-07 11:38:00,32.0,19.3,30.04,SSW,213,10.0,17.0,59,-99.99,,,0.00,1-wire,2013-01-07 17:38:00,
2013-01-07 11:44:00,32.1,19.6,30.04,SSW,213,6.0,11.0,59,-99.99,,,0.00,1-wire,2013-01-07 17:44:00,
2013-01-07 11:49:00,32.5,20.1,30.04,SSW,213,7.0,16.0,60,-99.99,,,0.00,1-wire,2013-01-07 17:49:00,
2013-01-07 11:54:00,32.6,20.1,30.03,SSW,209,5.0,9.0,60,-99.99,,,0.00,1-wire,2013-01-07 17:54:00,
2013-01-07 12:00:00,32.2,20.0,30.03,SSW,209,9.0,17.0,60,-99.99,,,0.00,1-wire,2013-01-07 18:00:00,
2013-01-07 12:05:00,32.3,20.1,30.03,SSW,209,8.0,17.0,60,-99.99,,,0.00,1-wire,2013-01-07 18:05:00,
2013-01-07 12:10:00,32.6,20.1,30.02,SSW,210,4.0,9.0,60,-99.99,,,0.00,1-wire,2013-01-07 18:10:00,
2013-01-07 12:15:00,32.7,20.6,30.01,SSW,210,6.0,11.0,60,-99.99,,,0.00,1-wire,2013-01-07 18:15:00,
2013-01-07 12:20:00,32.9,20.5,30.01,SSW,210,7.0,13.0,60,-99.99,,,0.00,1-wire,2013-01-07 18:20:00,
2013-01-07 12:25:00,33.0,20.7,30.01,SSW,199,8.0,19.0,60,-99.99,,,0.00,1-wire,2013-01-07 18:25:00,
2013-01-07 12:30:00,33.4,20.9,30.01,SSW,199,8.0,14.0,60,-99.99,,,0.00,1-wire,2013-01-07 18:30:00,
2013-01-07 12:35:00,33.4,21.1,30.01,SSW,199,6.0,9.0,60,-99.99,,,0.00,1-wire,2013-01-07 18:35:00,
2013-01-07 12:40:00,33.6,21.2,30.01,SSW,198,7.0,14.0,60,-99.99,,,0.00,1-wire,2013-01-07 18:40:00,
2013-01-07 12:45:00,34.0,21.6,30.01,SSW,198,8.0,14.0,60,-99.99,,,0.00,1-wire,2013-01-07 18:45:00,
2013-01-07 12:50:00,34.4,22.0,30.01,SSW,198,6.0,13.0,60,-99.99,,,0.00,1-wire,2013-01-07 18:50:00,
2013-01-07 12:55:00,34.4,21.8,30.02,SSW,194,5.0,14.0,60,-99.99,,,0.00,1-wire,2013-01-07 18:55:00,
2013-01-07 13:00:00,34.5,21.9,30.02,SSW,194,5.0,13.0,60,-99.99,,,0.00,1-wire,2013-01-07 19:00:00,
2013-01-07 13:05:00,34.9,21.9,30.02,SSW,194,4.0,9.0,59,-99.99,,,0.00,1-wire,2013-01-07 19:05:00,
2013-01-07 13:10:00,35.3,22.3,30.02,SW,214,9.0,14.0,59,-99.99,,,0.00,1-wire,2013-01-07 19:10:00,
2013-01-07 13:15:00,35.2,22.3,30.01,SW,214,6.0,13.0,59,-99.99,,,0.00,1-wire,2013-01-07 19:15:00,
2013-01-07 13:20:00,35.0,22.0,30.02,SW,214,7.0,16.0,59,-99.99,,,0.00,1-wire,2013-01-07 19:20:00,
2013-01-07 13:25:00,34.9,22.1,30.02,SW,215,3.0,6.0,59,-99.99,,,0.00,1-wire,2013-01-07 19:25:00,
2013-01-07 13:30:00,34.7,22.0,30.01,SW,215,6.0,9.0,59,-99.99,,,0.00,1-wire,2013-01-07 19:30:00,
2013-01-07 13:35:00,35.0,22.6,30.01,SW,215,3.0,8.0,60,-99.99,,,0.00,1-wire,2013-01-07 19:35:00,
2013-01-07 13:40:00,34.9,22.1,30.01,SW,216,7.0,11.0,59,-99.99,,,0.00,1-wire,2013-01-07 19:40:00,
2013-01-07 13:45:00,35.0,22.4,30.01,SW,216,6.0,9.0,60,-99.99,,,0.00,1-wire,2013-01-07 19:45:00,
2013-01-07 13:50:00,34.7,22.2,30.01,SW,216,4.0,8.0,60,-99.99,,,0.00,1-wire,2013-01-07 19:50:00,
2013-01-07 13:55:00,35.1,22.8,30.01,SW,216,7.0,14.0,60,-99.99,,,0.00,1-wire,2013-01-07 19:55:00,
2013-01-07 14:00:00,34.9,22.7,30.01,SW,216,5.0,12.0,61,-99.99,,,0.00,1-wire,2013-01-07 20:00:00,
2013-01-07 14:05:00,35.2,22.6,30.01,SW,216,4.0,8.0,60,-99.99,,,0.00,1-wire,2013-01-07 20:05:00,
2013-01-07 14:10:00,35.6,23.0,30.01,SW,214,6.0,11.0,60,-99.99,,,0.00,1-wire,2013-01-07 20:10:00,
2013-01-07 14:15:00,35.6,23.2,30.01,SW,214,8.0,16.0,60,-99.99,,,0.00,1-wire,2013-01-07 20:15:00,
2013-01-07 14:20:00,35.7,23.5,30.01,SW,214,5.0,9.0,61,-99.99,,,0.00,1-wire,2013-01-07 20:20:00,
2013-01-07 14:25:00,35.8,23.3,30.01,SSW,209,5.0,9.0,60,-99.99,,,0.00,1-wire,2013-01-07 20:25:00,
2013-01-07 14:30:00,35.8,23.5,30.01,SSW,209,5.0,9.0,60,-99.99,,,0.00,1-wire,2013-01-07 20:30:00,
2013-01-07 14:35:00,35.9,23.5,30.01,SSW,209,7.0,14.0,60,-99.99,,,0.00,1-wire,2013-01-07 20:35:00,
2013-01-07 14:40:00,35.7,23.5,30.01,SSW,212,6.0,9.0,61,-99.99,,,0.00,1-wire,2013-01-07 20:40:00,
2013-01-07 14:45:00,35.9,23.6,30.01,SSW,212,2.0,6.0,61,-99.99,,,0.00,1-wire,2013-01-07 20:45:00,
2013-01-07 14:50:00,36.2,24.0,30.01,SSW,212,2.0,6.0,61,-99.99,,,0.00,1-wire,2013-01-07 20:50:00,
2013-01-07 14:55:00,36.0,23.6,30.01,SSW,213,2.0,6.0,60,-99.99,,,0.00,1-wire,2013-01-07 20:55:00,
2013-01-07 15:00:00,36.1,23.9,30.01,SSW,213,5.0,9.0,61,-99.99,,,0.00,1-wire,2013-01-07 21:00:00,
2013-01-07 15:05:00,36.0,23.8,30.01,SSW,213,4.0,9.0,61,-99.99,,,0.00,1-wire,2013-01-07 21:05:00,
2013-01-07 15:10:00,35.7,23.6,30.01,SW,215,6.0,9.0,61,-99.99,,,0.00,1-wire,2013-01-07 21:10:00,
2013-01-07 15:15:00,35.6,23.8,30.01,SW,215,3.0,6.0,62,-99.99,,,0.00,1-wire,2013-01-07 21:15:00,
2013-01-07 15:20:00,35.9,24.1,30.01,SW,215,6.0,11.0,62,-99.99,,,0.00,1-wire,2013-01-07 21:20:00,
2013-01-07 15:25:00,36.0,24.0,30.01,SW,217,2.0,7.0,61,-99.99,,,0.00,1-wire,2013-01-07 21:25:00,
2013-01-07 15:30:00,35.9,24.1,30.02,SW,217,2.0,6.0,62,-99.99,,,0.00,1-wire,2013-01-07 21:30:00,
2013-01-07 15:35:00,35.8,23.7,30.02,SW,217,5.0,8.0,61,-99.99,,,0.00,1-wire,2013-01-07 21:35:00,
2013-01-07 15:40:00,35.8,23.9,30.01,SW,216,1.0,3.0,62,-99.99,,,0.00,1-wire,2013-01-07 21:40:00,
2013-01-07 15:45:00,35.7,23.8,30.02,SW,216,5.0,13.0,61,-99.99,,,0.00,1-wire,2013-01-07 21:45:00,
2013-01-07 15:50:00,35.6,23.8,30.02,SW,216,4.0,6.0,62,-99.99,,,0.00,1-wire,2013-01-07 21:50:00,
2013-01-07 15:55:00,35.7,23.9,30.01,SW,216,4.0,11.0,62,-99.99,,,0.00,1-wire,2013-01-07 21:55:00,
2013-01-07 16:00:00,35.6,24.0,30.01,SW,216,6.0,12.0,62,-99.99,,,0.00,1-wire,2013-01-07 22:00:00,
2013-01-07 16:05:00,35.6,23.8,30.01,SW,216,4.0,9.0,62,-99.99,,,0.00,1-wire,2013-01-07 22:05:00,
2013-01-07 16:10:00,35.6,24.1,30.01,SW,215,3.0,6.0,63,-99.99,,,0.00,1-wire,2013-01-07 22:10:00,
2013-01-07 16:15:00,35.5,24.2,30.01,SW,215,2.0,6.0,63,-99.99,,,0.00,1-wire,2013-01-07 22:15:00,
2013-01-07 16:20:00,35.5,24.1,30.02,SW,215,3.0,6.0,63,-99.99,,,0.00,1-wire,2013-01-07 22:20:00,
2013-01-07 16:25:00,35.7,24.4,30.02,SSW,211,1.0,3.0,63,-99.99,,,0.00,1-wire,2013-01-07 22:25:00,
2013-01-07 16:30:00,35.0,23.8,30.02,SSW,211,2.0,6.0,63,-99.99,,,0.00,1-wire,2013-01-07 22:30:00,
2013-01-07 16:35:00,35.0,24.0,30.02,SSW,211,2.0,5.0,64,-99.99,,,0.00,1-wire,2013-01-07 22:35:00,
2013-01-07 16:40:00,34.9,24.0,30.02,SSW,211,6.0,11.0,64,-99.99,,,0.00,1-wire,2013-01-07 22:40:00,
2013-01-07 16:45:00,34.8,24.0,30.03,SSW,211,4.0,6.0,64,-99.99,,,0.00,1-wire,2013-01-07 22:45:00,
2013-01-07 16:50:00,34.5,24.0,30.02,SSW,211,3.0,6.0,65,-99.99,,,0.00,1-wire,2013-01-07 22:50:00,
2013-01-07 16:56:00,34.5,23.8,30.03,SSW,213,2.0,6.0,65,-99.99,,,0.00,1-wire,2013-01-07 22:56:00,
2013-01-07 17:02:00,34.2,23.9,30.03,SSW,213,2.0,3.0,65,-99.99,,,0.00,1-wire,2013-01-07 23:02:00,
2013-01-07 17:08:00,34.5,24.0,30.03,SSW,209,1.0,3.0,65,-99.99,,,0.00,1-wire,2013-01-07 23:08:00,
2013-01-07 17:13:00,34.2,23.9,30.03,SSW,209,2.0,6.0,65,-99.99,,,0.00,1-wire,2013-01-07 23:13:00,
2013-01-07 17:18:00,34.2,23.9,30.03,SSW,209,1.0,3.0,66,-99.99,,,0.00,1-wire,2013-01-07 23:18:00,
2013-01-07 17:23:00,34.3,24.0,30.03,SSW,211,1.0,3.0,66,-99.99,,,0.00,1-wire,2013-01-07 23:23:00,
2013-01-07 17:28:00,33.8,23.8,30.02,SSW,211,1.0,3.0,66,-99.99,,,0.00,1-wire,2013-01-07 23:28:00,
2013-01-07 17:34:00,33.7,23.9,30.03,SSW,211,2.0,6.0,67,-99.99,,,0.00,1-wire,2013-01-07 23:34:00,
2013-01-07 17:39:00,33.5,23.8,30.03,SSW,213,1.0,3.0,67,-99.99,,,0.00,1-wire,2013-01-07 23:39:00,
2013-01-07 17:44:00,33.4,23.8,30.03,SSW,213,1.0,3.0,67,-99.99,,,0.00,1-wire,2013-01-07 23:44:00,
2013-01-07 17:49:00,33.3,23.8,30.02,SSW,213,2.0,3.0,68,-99.99,,,0.00,1-wire,2013-01-07 23:49:00,
2013-01-07 17:54:00,33.3,23.7,30.03,SSW,211,1.0,3.0,67,-99.99,,,0.00,1-wire,2013-01-07 23:54:00,
2013-01-07 18:00:00,33.2,23.6,30.02,SSW,211,2.0,6.0,67,-99.99,,,0.00,1-wire,2013-01-08 00:00:00,
2013-01-07 18:06:00,33.1,23.6,30.02,SSW,204,2.0,6.0,68,-99.99,,,0.00,1-wire,2013-01-08 00:06:00,
2013-01-07 18:11:00,33.1,23.7,30.02,SSW,204,1.0,3.0,68,-99.99,,,0.00,1-wire,2013-01-08 00:11:00,
2013-01-07 18:16:00,33.0,23.7,30.02,SSW,204,2.0,3.0,68,-99.99,,,0.00,1-wire,2013-01-08 00:16:00,
2013-01-07 18:21:00,32.8,23.7,30.03,SSW,207,0.0,3.0,69,-99.99,,,0.00,1-wire,2013-01-08 00:21:00,
2013-01-07 18:26:00,32.8,23.6,30.03,SSW,207,2.0,6.0,69,-99.99,,,0.00,1-wire,2013-01-08 00:26:00,
2013-01-07 18:32:00,32.7,23.7,30.02,SSW,207,4.0,6.0,69,-99.99,,,0.00,1-wire,2013-01-08 00:32:00,
2013-01-07 18:38:00,32.6,23.6,30.03,SSW,208,1.0,3.0,69,-99.99,,,0.00,1-wire,2013-01-08 00:38:00,
2013-01-07 18:44:00,32.2,23.3,30.03,SSW,208,1.0,6.0,69,-99.99,,,0.00,1-wire,2013-01-08 00:44:00,
2013-01-07 18:49:00,32.1,23.3,30.03,SSW,208,1.0,3.0,70,-99.99,,,0.00,1-wire,2013-01-08 00:49:00,
2013-01-07 18:54:00,32.0,23.2,30.03,SSW,208,0.0,3.0,70,-99.99,,,0.00,1-wire,2013-01-08 00:54:00,
2013-01-07 18:59:00,31.8,23.2,30.03,SSW,208,2.0,3.0,70,-99.99,,,0.00,1-wire,2013-01-08 00:59:00,
2013-01-07 19:04:00,31.8,23.4,30.03,SSW,208,1.0,3.0,71,-99.99,,,0.00,1-wire,2013-01-08 01:04:00,
2013-01-07 19:10:00,31.7,23.3,30.02,SSW,213,1.0,3.0,71,-99.99,,,0.00,1-wire,2013-01-08 01:10:00,
2013-01-07 19:16:00,31.3,23.0,30.03,SSW,213,1.0,3.0,71,-99.99,,,0.00,1-wire,2013-01-08 01:16:00,
2013-01-07 19:21:00,31.2,23.2,30.03,SSW,203,1.0,3.0,72,-99.99,,,0.00,1-wire,2013-01-08 01:21:00,
2013-01-07 19:26:00,31.0,22.9,30.02,SSW,203,0.0,3.0,72,-99.99,,,0.00,1-wire,2013-01-08 01:26:00,
2013-01-07 19:31:00,30.7,23.0,30.02,SSW,203,2.0,6.0,73,-99.99,,,0.00,1-wire,2013-01-08 01:31:00,
2013-01-07 19:36:00,30.8,22.9,30.02,SSW,203,2.0,6.0,72,-99.99,,,0.00,1-wire,2013-01-08 01:36:00,
2013-01-07 19:42:00,31.2,23.5,30.02,SSW,203,1.0,6.0,73,-99.99,,,0.00,1-wire,2013-01-08 01:42:00,
2013-01-07 19:47:00,31.2,23.3,30.02,SSW,203,0.0,3.0,72,-99.99,,,0.00,1-wire,2013-01-08 01:47:00,
2013-01-07 19:53:00,31.3,23.3,30.01,SSW,201,1.0,3.0,72,-99.99,,,0.00,1-wire,2013-01-08 01:53:00,
2013-01-07 19:58:00,31.3,23.4,30.02,SSW,201,0.0,0.0,72,-99.99,,,0.00,1-wire,2013-01-08 01:58:00,
2013-01-07 20:03:00,31.0,23.3,30.01,SSW,201,1.0,3.0,73,-99.99,,,0.00,1-wire,2013-01-08 02:03:00,
2013-01-07 20:08:00,31.0,23.3,30.01,SSW,199,0.0,3.0,73,-99.99,,,0.00,1-wire,2013-01-08 02:08:00,
2013-01-07 20:13:00,31.1,23.5,30.02,SSW,199,2.0,3.0,73,-99.99,,,0.00,1-wire,2013-01-08 02:13:00,
2013-01-07 20:18:00,31.0,23.3,30.02,SSW,199,2.0,5.0,73,-99.99,,,0.00,1-wire,2013-01-08 02:18:00,
2013-01-07 20:23:00,30.9,23.1,30.02,SSW,205,2.0,3.0,73,-99.99,,,0.00,1-wire,2013-01-08 02:23:00,
2013-01-07 20:28:00,30.9,23.3,30.01,SSW,205,2.0,6.0,73,-99.99,,,0.00,1-wire,2013-01-08 02:28:00,
2013-01-07 20:33:00,30.9,23.2,30.02,SSW,205,1.0,6.0,73,-99.99,,,0.00,1-wire,2013-01-08 02:33:00,
2013-01-07 20:38:00,31.0,23.3,30.02,SSW,209,1.0,3.0,73,-99.99,,,0.00,1-wire,2013-01-08 02:38:00,
2013-01-07 20:43:00,30.9,23.3,30.02,SSW,209,1.0,3.0,73,-99.99,,,0.00,1-wire,2013-01-08 02:43:00,
2013-01-07 20:48:00,30.8,23.3,30.01,SSW,209,1.0,3.0,73,-99.99,,,0.00,1-wire,2013-01-08 02:48:00,
2013-01-07 20:53:00,30.8,23.2,30.01,SSW,204,0.0,3.0,73,-99.99,,,0.00,1-wire,2013-01-08 02:53:00,
2013-01-07 20:58:00,30.8,23.5,30.02,SSW,204,2.0,3.0,74,-99.99,,,0.00,1-wire,2013-01-08 02:58:00,
2013-01-07 21:03:00,30.8,23.4,30.01,SSW,204,5.0,9.0,74,-99.99,,,0.00,1-wire,2013-01-08 03:03:00,
2013-01-07 21:08:00,30.9,23.4,30.01,SSW,207,3.0,6.0,73,-99.99,,,0.00,1-wire,2013-01-08 03:08:00,
2013-01-07 21:13:00,30.9,23.5,30.01,SSW,207,4.0,9.0,74,-99.99,,,0.00,1-wire,2013-01-08 03:13:00,
2013-01-07 21:18:00,31.2,23.8,30.01,SSW,207,4.0,9.0,74,-99.99,,,0.00,1-wire,2013-01-08 03:18:00,
2013-01-07 21:23:00,31.3,23.8,30.02,SSW,213,5.0,8.0,73,-99.99,,,0.00,1-wire,2013-01-08 03:23:00,
2013-01-07 21:28:00,31.3,23.7,30.02,SSW,213,4.0,6.0,73,-99.99,,,0.00,1-wire,2013-01-08 03:28:00,
2013-01-07 21:33:00,31.3,23.7,30.03,SSW,213,3.0,6.0,73,-99.99,,,0.00,1-wire,2013-01-08 03:33:00,
2013-01-07 21:38:00,31.3,23.7,30.03,SSW,213,2.0,6.0,73,-99.99,,,0.00,1-wire,2013-01-08 03:38:00,
2013-01-07 21:43:00,31.2,23.6,30.03,SSW,213,3.0,6.0,73,-99.99,,,0.00,1-wire,2013-01-08 03:43:00,
2013-01-07 21:48:00,31.7,24.1,30.03,SSW,213,2.0,5.0,73,-99.99,,,0.00,1-wire,2013-01-08 03:48:00,
2013-01-07 21:53:00,31.8,24.2,30.03,SW,220,2.0,6.0,73,-99.99,,,0.00,1-wire,2013-01-08 03:53:00,
2013-01-07 21:58:00,31.8,24.1,30.03,SW,220,1.0,3.0,73,-99.99,,,0.00,1-wire,2013-01-08 03:58:00,
2013-01-07 22:03:00,31.7,24.0,30.03,SW,220,2.0,3.0,73,-99.99,,,0.00,1-wire,2013-01-08 04:03:00,
2013-01-07 22:08:00,31.9,24.1,30.03,SW,224,4.0,6.0,73,-99.99,,,0.00,1-wire,2013-01-08 04:08:00,
2013-01-07 22:13:00,31.9,24.3,30.02,SW,224,3.0,6.0,73,-99.99,,,0.00,1-wire,2013-01-08 04:13:00,
2013-01-07 22:18:00,31.9,24.2,30.03,SW,224,1.0,6.0,73,-99.99,,,0.00,1-wire,2013-01-08 04:18:00,
2013-01-07 22:23:00,32.1,24.3,30.02,WSW,242,2.0,5.0,73,-99.99,,,0.00,1-wire,2013-01-08 04:23:00,
2013-01-07 22:28:00,32.1,24.4,30.03,WSW,242,2.0,6.0,73,-99.99,,,0.00,1-wire,2013-01-08 04:28:00,
2013-01-07 22:33:00,32.3,24.4,30.02,WSW,242,4.0,6.0,72,-99.99,,,0.00,1-wire,2013-01-08 04:33:00,
2013-01-07 22:38:00,32.0,24.1,30.01,WSW,244,2.0,6.0,72,-99.99,,,0.00,1-wire,2013-01-08 04:38:00,
2013-01-07 22:43:00,32.0,24.2,30.01,WSW,244,1.0,6.0,73,-99.99,,,0.00,1-wire,2013-01-08 04:43:00,
2013-01-07 22:48:00,31.9,24.1,30.01,WSW,244,0.0,3.0,73,-99.99,,,0.00,1-wire,2013-01-08 04:48:00,
2013-01-07 22:53:00,31.8,24.0,30.01,WSW,243,0.0,3.0,73,-99.99,,,0.00,1-wire,2013-01-08 04:53:00,
2013-01-07 22:58:00,32.1,24.2,30.01,WSW,243,0.0,3.0,72,-99.99,,,0.00,1-wire,2013-01-08 04:58:00,
2013-01-07 23:00:00,31.9,24.1,30.01,WSW,243,2.0,3.0,73,-99.99,,,0.00,1-wire,2013-01-08 05:00:00,
2013-01-07 23:01:00,31.8,24.1,30.01,WSW,243,1.0,3.0,73,-99.99,,,0.00,1-wire,2013-01-08 05:01:00,
2013-01-07 23:03:00,32.0,24.2,30.01,WSW,243,1.0,3.0,72,-99.99,,,0.00,1-wire,2013-01-08 05:03:00,
2013-01-07 23:04:00,32.2,24.4,30.01,WSW,243,1.0,3.0,73,-99.99,,,0.00,1-wire,2013-01-08 05:04:00,
2013-01-07 23:09:00,32.2,24.5,30.01,WSW,241,1.0,3.0,73,-99.99,,,0.00,1-wire,2013-01-08 05:09:00,
2013-01-07 23:14:00,31.9,24.2,30.01,WSW,241,1.0,6.0,73,-99.99,,,0.00,1-wire,2013-01-08 05:14:00,
2013-01-07 23:19:00,32.1,24.4,30.02,WSW,241,2.0,3.0,73,-99.99,,,0.00,1-wire,2013-01-08 05:19:00,
2013-01-07 23:25:00,31.8,24.0,30.02,WSW,238,2.0,6.0,73,-99.99,,,0.00,1-wire,2013-01-08 05:25:00,
2013-01-07 23:31:00,32.0,24.4,30.02,WSW,238,0.0,3.0,73,-99.99,,,0.00,1-wire,2013-01-08 05:31:00,
2013-01-07 23:37:00,32.1,24.5,30.02,WSW,239,0.0,0.0,73,-99.99,,,0.00,1-wire,2013-01-08 05:37:00,
2013-01-07 23:43:00,32.0,24.4,30.02,WSW,239,0.0,0.0,73,-99.99,,,0.00,1-wire,2013-01-08 05:43:00,
2013-01-07 23:48:00,31.7,24.1,30.03,WSW,239,0.0,0.0,73,-99.99,,,0.00,1-wire,2013-01-08 05:48:00,
2013-01-07 23:53:00,31.3,24.0,30.02,WSW,241,0.0,3.0,74,-99.99,,,0.00,1-wire,2013-01-08 05:53:00,
2013-01-07 23:58:00,31.1,23.9,30.03,WSW,241,0.0,0.0,74,-99.99,,,0.00,1-wire,2013-01-08 05:58:00,